Aeroporto :
LOGIN :

Iscrizione | Disclaimer

   EN    FR    IT 

 










Sommario :    VFR   VFR Marginale   IFR   IFR Intensivo   IFR Molto Intensivo
Visibilità : 
Base nubi : 
>= 8 km
>= 3000ft
5 / 8 km
1000 / 3000 ft
1500m / 5 km
500 / 1000 ft
800 / 1500m
200 / 500 ft
< 800m
< 200 ft
Simboli :   Temporali  Nebbia  Neve Forte  Precipitazioni Forti  Vento > 20 kt
SIGMETs :   Varie  Temporali  Ghiacco  Turbolenza  Onda orograficha  Ceneri Vulcaniche







- Altitudine del aeroporto : 1504 ft
- Codice IATA : PNA


LEPP - Noain Pamplona

ULTIMO METAR :
  • 252130Z 29005KT CAVOK 22/19 Q1017

METARs OBSOLETI :
  • 252100Z 27003KT 240V300 CAVOK 23/19 Q1017
  • 252030Z 29005KT 250V310 CAVOK 24/19 Q1016
  • 252000Z 27006KT 240V310 CAVOK 25/19 Q1016
  • 251930Z 28006KT CAVOK 26/20 Q1016
  • 251900Z 29008KT 260V320 CAVOK 27/20 Q1015
  • 251830Z 30010KT CAVOK 28/20 Q1015

TAF TAF LEPP
Valido dal 25 a 21 ore il 26 a 21 ore UTC


252000Z 2521/2621 28006KT CAVOK TX38/2616Z TN20/2604Z
BECMG 2606/2608 15012KT
TEMPO 2608/2619 16016G28KT
Nessun NOTAM noto per questo aeroporto.
1 SIGMET conosciuto per la FIR Madrid (LECM) :
 
Temporali affogati
LECM SIGMET 2 VALID 251911/252200 LEVA
LECM MADRID FIR/UIR EMBD TS OBS AT 1911Z N OF LINE N4320 W00350 - N43 W00520 TOP FL340 MOV NNE 25KT NC=



MetMap, La meteo Aeronautica in un colpo d'occhio ! - Copyright ORBIFLY Dicembre 2007 - Disclaimer

ORBIFLY MET'MAP TEAM :

Programmazione e sviluppo : Alexandra Zaïnal
Concezione e sviluppo : Baudouin d'Aumeries
Co-Programmazione e sviluppo : Marc-Olivier Méhu
Supporto tecnico e logistico : Manuel Goepfert
Aiuto per la traduzione : Arnaldo La Scala

Contatto : metmap@orbifly.com




FONTI E CREDITI :

   NOAA